This is the latest recevied weather packets stored in our database for station/object CX5ACA-13. If no packets are shown the sender has not sent any weather packets the latest 10 day(s).
| Time | Temp. | Humidity | Pressure | Rain* | Wind** | Luminosity | Snow |
|---|---|---|---|---|---|---|---|
| 1777815160 | 16.11° C | 56% | 1024.5 hPa | 0 mm | - | 376 W/m² | - |
| 1777814856 | 16.67° C | 55% | 1024.6 hPa | 0 mm | - | 363 W/m² | - |
| 1777814552 | 15.56° C | 56% | 1024.6 hPa | 0 mm | - | 353 W/m² | - |
| 1777814250 | 15.56° C | 57% | 1024.6 hPa | 0 mm | - | 346 W/m² | - |
| 1777813947 | 15.56° C | 58% | 1024.5 hPa | 0 mm | - | 332 W/m² | - |
| 1777813644 | 16.11° C | 57% | 1024.7 hPa | 0 mm | - | 317 W/m² | - |
| 1777813341 | 15.56° C | 58% | 1024.7 hPa | 0 mm | - | 300 W/m² | - |
| 1777813039 | 16.11° C | 58% | 1024.8 hPa | 0 mm | - | 293 W/m² | - |
| 1777812737 | 15.56° C | 62% | 1024.8 hPa | 0 mm | - | 280 W/m² | - |
| 1777812433 | 15° C | 64% | 1024.8 hPa | 0 mm | - | 269 W/m² | - |
| 1777812131 | 15.56° C | 64% | 1025 hPa | 0 mm | - | 259 W/m² | - |
| 1777811829 | 14.44° C | 66% | 1024.8 hPa | 0 mm | - | 243 W/m² | - |
| 1777811527 | 14.44° C | 69% | 1025.1 hPa | 0 mm | - | 230 W/m² | - |
| 1777811222 | 14.44° C | 69% | 1024.9 hPa | 0 mm | - | 216 W/m² | - |
| 1777810920 | 13.89° C | 71% | 1024.8 hPa | 0 mm | - | 202 W/m² | - |
| 1777810616 | 14.44° C | 68% | 1024.9 hPa | 0 mm | - | 190 W/m² | - |
| 1777810313 | 14.44° C | 68% | 1024.8 hPa | 0 mm | - | 175 W/m² | - |
| 1777810008 | 13.89° C | 68% | 1025 hPa | 0 mm | - | 163 W/m² | - |
| 1777809707 | 13.89° C | 69% | 1024.9 hPa | 0 mm | - | 150 W/m² | - |
| 1777809404 | 13.89° C | 68% | 1024.8 hPa | 0 mm | - | 139 W/m² | - |
| 1777809102 | 13.89° C | 69% | 1025 hPa | 0 mm | - | 126 W/m² | - |
| 1777808799 | 13.33° C | 70% | 1024.7 hPa | 0 mm | - | 113 W/m² | - |
| 1777808496 | 12.78° C | 72% | 1024.9 hPa | 0 mm | - | 101 W/m² | - |
| 1777808193 | 11.67° C | 75% | 1024.9 hPa | 0 mm | - | 39 W/m² | - |
| 1777807892 | 11.67° C | 75% | 1024.8 hPa | 0 mm | - | 37 W/m² | - |
* Rain latest hour (hover to see other rain measurements)
** Current wind speed in m/s (hover to see current wind gust speed)